createdAt,value
2019-04-23T00:00:45.546Z,15.83
2019-04-23T00:02:03.794Z,15.91
2019-04-23T00:02:44.400Z,15.79
2019-04-23T00:03:58.221Z,15.90
2019-04-23T00:04:45.207Z,15.82
2019-04-23T00:06:48.871Z,15.88
2019-04-23T00:09:46.986Z,15.68
2019-04-23T00:10:49.046Z,15.73
2019-04-23T00:11:49.585Z,15.72
2019-04-23T00:12:57.228Z,15.73
2019-04-23T00:14:05.679Z,15.61
2019-04-23T00:15:03.648Z,15.72
2019-04-23T00:15:53.312Z,15.65
2019-04-23T00:16:47.305Z,15.67
2019-04-23T00:17:42.448Z,15.65
2019-04-23T00:18:46.815Z,15.62
2019-04-23T00:20:12.918Z,15.64
2019-04-23T00:20:44.276Z,15.61
2019-04-23T00:22:49.873Z,15.64
2019-04-23T00:23:53.067Z,15.58
2019-04-23T00:26:02.772Z,15.47
2019-04-23T00:26:42.896Z,15.47
2019-04-23T00:27:47.808Z,15.46
2019-04-23T00:29:48.388Z,15.43
2019-04-23T00:32:08.151Z,15.40
2019-04-23T00:32:42.619Z,15.40
2019-04-23T00:33:44.089Z,15.28
2019-04-23T00:34:50.097Z,15.29
2019-04-23T00:36:44.299Z,15.35
2019-04-23T00:38:06.605Z,15.33
2019-04-23T00:39:49.986Z,15.33
2019-04-23T00:40:47.125Z,15.28
2019-04-23T00:41:45.755Z,15.33
2019-04-23T00:43:00.614Z,15.25
2019-04-23T00:44:01.951Z,15.25
2019-04-23T00:44:47.855Z,15.21
2019-04-23T00:45:44.598Z,15.21
2019-04-23T00:46:42.022Z,15.25
2019-04-23T00:47:48.564Z,15.27
2019-04-23T00:50:52.898Z,15.10
2019-04-23T00:51:45.640Z,15.17
2019-04-23T00:52:42.165Z,15.06
2019-04-23T00:53:42.057Z,15.17
2019-04-23T00:56:19.031Z,15.07
2019-04-23T00:57:40.603Z,15.06
2019-04-23T00:58:41.228Z,15.06
2019-04-23T00:59:44.773Z,15.09
2019-04-23T01:02:02.710Z,15.04
2019-04-23T01:02:47.432Z,15.09
2019-04-23T01:03:47.330Z,15.03
2019-04-23T01:04:48.026Z,15.00
2019-04-23T01:05:42.524Z,15.07
2019-04-23T01:06:41.513Z,14.97
2019-04-23T01:08:07.864Z,15.00
2019-04-23T01:08:59.841Z,14.97
2019-04-23T01:09:45.791Z,14.85
2019-04-23T01:10:45.841Z,14.89
2019-04-23T01:11:39.247Z,14.94
2019-04-23T01:12:51.268Z,14.82
2019-04-23T01:14:01.044Z,14.84
2019-04-23T01:14:43.027Z,14.91
2019-04-23T01:16:39.317Z,14.84
2019-04-23T01:20:01.629Z,14.84
2019-04-23T01:20:45.909Z,14.92
2019-04-23T01:21:19.958Z,14.69
2019-04-23T01:22:21.055Z,14.68
2019-04-23T01:23:29.848Z,14.73
2019-04-23T01:24:25.121Z,14.73
2019-04-23T01:25:53.732Z,14.77
2019-04-23T01:26:47.972Z,14.60
2019-04-23T01:27:53.097Z,14.66
2019-04-23T01:28:49.662Z,14.73
2019-04-23T01:29:46.528Z,14.70
2019-04-23T01:30:52.083Z,14.62
2019-04-23T01:32:05.882Z,14.62
2019-04-23T01:32:41.043Z,14.65
2019-04-23T01:33:46.635Z,14.62
2019-04-23T01:34:52.330Z,14.60
2019-04-23T01:35:51.111Z,14.60
2019-04-23T01:36:41.481Z,14.55
2019-04-23T01:38:06.130Z,14.58
2019-04-23T01:38:51.105Z,14.53
2019-04-23T01:39:43.892Z,14.50
2019-04-23T01:40:40.573Z,14.59
2019-04-23T01:41:47.838Z,14.51
2019-04-23T01:42:44.629Z,14.53
2019-04-23T01:44:03.652Z,14.48
2019-04-23T01:44:53.839Z,14.54
2019-04-23T01:45:35.706Z,14.53
2019-04-23T01:46:51.055Z,14.51
2019-04-23T01:48:47.112Z,14.58
2019-04-23T01:50:48.401Z,14.48
2019-04-23T01:51:46.416Z,14.53
2019-04-23T01:52:55.038Z,14.51
2019-04-23T01:53:45.559Z,14.50
2019-04-23T01:54:45.497Z,14.43
2019-04-23T01:56:04.813Z,14.47
2019-04-23T01:56:40.007Z,14.45
2019-04-23T01:58:53.589Z,14.50
2019-04-23T01:59:49.435Z,14.47
2019-04-23T02:01:00.865Z,14.50
2019-04-23T02:02:08.682Z,14.37
2019-04-23T02:02:49.831Z,14.50
2019-04-23T02:03:48.527Z,14.41
2019-04-23T02:04:44.554Z,14.36
2019-04-23T02:06:45.464Z,14.41
2019-04-23T02:08:47.035Z,14.37
2019-04-23T02:09:52.338Z,14.40
2019-04-23T02:10:51.341Z,14.40
2019-04-23T02:11:45.602Z,14.43
2019-04-23T02:12:49.336Z,14.35
2019-04-23T02:14:11.240Z,14.30
2019-04-23T02:14:43.369Z,14.30
2019-04-23T02:15:43.961Z,14.26
2019-04-23T02:16:44.090Z,14.33
2019-04-23T02:17:47.528Z,14.32
2019-04-23T02:18:43.748Z,14.32
2019-04-23T02:20:14.119Z,14.28
2019-04-23T02:20:59.608Z,14.30
2019-04-23T02:21:47.281Z,14.23
2019-04-23T02:22:58.717Z,14.43
2019-04-23T02:23:44.403Z,14.33
2019-04-23T02:24:51.061Z,14.28
2019-04-23T02:26:04.802Z,14.35
2019-04-23T02:26:43.463Z,14.30
2019-04-23T02:27:54.060Z,14.35
2019-04-23T02:28:47.587Z,14.29
2019-04-23T02:29:51.293Z,14.32
2019-04-23T02:32:16.849Z,14.28
2019-04-23T02:32:59.267Z,14.32
2019-04-23T02:33:49.552Z,14.32
2019-04-23T02:35:55.976Z,14.26
2019-04-23T02:38:25.065Z,14.26
2019-04-23T02:38:52.388Z,14.20
2019-04-23T02:41:54.447Z,14.20
2019-04-23T02:44:45.214Z,14.23
2019-04-23T02:45:56.431Z,14.15
2019-04-23T02:47:53.004Z,14.17
2019-04-23T02:50:43.936Z,14.17
2019-04-23T02:51:54.659Z,14.07
2019-04-23T02:52:49.787Z,14.12
2019-04-23T02:56:15.291Z,14.04
2019-04-23T02:57:50.444Z,14.03
2019-04-23T03:00:07.945Z,14.08
2019-04-23T03:01:06.830Z,14.00
2019-04-23T03:02:26.275Z,14.04
2019-04-23T03:04:50.001Z,14.04
2019-04-23T03:06:55.540Z,14.00
2019-04-23T03:08:13.660Z,14.00
2019-04-23T03:08:46.538Z,13.93
2019-04-23T03:10:57.037Z,13.92
2019-04-23T03:11:47.897Z,13.93
2019-04-23T03:13:12.320Z,13.95
2019-04-23T03:14:56.108Z,13.89
2019-04-23T03:16:54.743Z,13.89
2019-04-23T03:17:57.569Z,13.92
2019-04-23T03:19:02.956Z,13.92
2019-04-23T03:20:15.202Z,13.81
2019-04-23T03:21:01.765Z,13.85
2019-04-23T03:21:52.302Z,13.83
2019-04-23T03:22:58.952Z,13.79
2019-04-23T03:25:07.127Z,13.89
2019-04-23T03:26:21.314Z,13.85
2019-04-23T03:27:41.609Z,13.81
2019-04-23T03:32:01.295Z,13.78
2019-04-23T03:38:23.508Z,13.79
2019-04-23T03:39:56.554Z,13.72
2019-04-23T03:40:50.335Z,13.70
2019-04-23T03:41:48.576Z,13.63
2019-04-23T03:42:53.839Z,13.59
2019-04-23T03:44:02.535Z,13.65
2019-04-23T03:46:00.850Z,13.63
2019-04-23T03:46:46.758Z,13.59
2019-04-23T03:47:48.686Z,13.60
2019-04-23T03:48:47.409Z,13.54
2019-04-23T03:50:38.961Z,13.50
2019-04-23T03:51:52.167Z,13.56
2019-04-23T03:53:03.491Z,13.56
2019-04-23T03:54:11.632Z,13.44
2019-04-23T03:55:06.080Z,13.47
2019-04-23T03:57:03.938Z,13.46
2019-04-23T03:58:02.364Z,13.47
2019-04-23T04:02:20.630Z,13.42
2019-04-23T04:04:14.842Z,13.42
2019-04-23T04:06:48.021Z,13.39
2019-04-23T04:08:16.016Z,13.42
2019-04-23T04:08:47.048Z,13.41
2019-04-23T04:09:48.057Z,13.42
2019-04-23T04:11:38.197Z,13.33
2019-04-23T04:12:50.036Z,13.31
2019-04-23T04:14:36.727Z,13.38
2019-04-23T04:15:01.659Z,13.35
2019-04-23T04:17:50.200Z,13.38
2019-04-23T04:18:57.301Z,13.28
2019-04-23T04:20:49.349Z,13.35
2019-04-23T04:21:52.410Z,13.37
2019-04-23T04:23:53.443Z,13.33
2019-04-23T04:26:07.058Z,13.25
2019-04-23T04:26:50.896Z,13.28
2019-04-23T04:27:53.774Z,13.12
2019-04-23T04:29:51.868Z,13.09
2019-04-23T04:30:48.280Z,13.05
2019-04-23T04:32:03.730Z,13.12
2019-04-23T04:32:56.628Z,13.12
2019-04-23T04:34:11.370Z,13.08
2019-04-23T04:35:39.243Z,13.11
2019-04-23T04:36:58.604Z,13.11
2019-04-23T04:38:16.511Z,13.09
2019-04-23T04:41:51.745Z,13.12
2019-04-23T04:42:59.037Z,13.01
2019-04-23T04:44:36.149Z,13.03
2019-04-23T04:45:57.465Z,13.11
2019-04-23T04:46:45.803Z,12.98
2019-04-23T04:47:44.974Z,13.01
2019-04-23T04:48:50.779Z,13.12
2019-04-23T04:50:09.946Z,13.09
2019-04-23T04:50:55.471Z,12.98
2019-04-23T04:54:37.630Z,13.11
2019-04-23T04:56:45.059Z,13.11
2019-04-23T04:57:52.396Z,13.09
2019-04-23T04:58:46.961Z,13.09
2019-04-23T04:59:53.996Z,13.09
2019-04-23T05:02:14.367Z,13.08
2019-04-23T05:03:04.387Z,13.08
2019-04-23T05:03:57.901Z,13.05
2019-04-23T05:04:57.675Z,13.19
2019-04-23T05:06:02.657Z,13.15
2019-04-23T05:06:51.567Z,13.16
2019-04-23T05:08:07.229Z,13.22
2019-04-23T05:08:49.216Z,13.18
2019-04-23T05:09:55.446Z,13.19
2019-04-23T05:13:11.668Z,13.18
2019-04-23T05:14:52.554Z,13.15
2019-04-23T05:16:46.708Z,13.19
2019-04-23T05:17:51.843Z,13.15
2019-04-23T05:19:08.559Z,13.13
2019-04-23T05:20:08.194Z,13.15
2019-04-23T05:20:48.335Z,13.23
2019-04-23T05:21:46.776Z,13.30
2019-04-23T05:22:49.349Z,13.33
2019-04-23T05:23:50.373Z,13.28
2019-04-23T05:24:43.299Z,13.27
2019-04-23T05:25:58.824Z,13.35
2019-04-23T05:26:55.603Z,13.30
2019-04-23T05:27:46.338Z,13.31
2019-04-23T05:28:47.051Z,13.33
2019-04-23T05:29:36.391Z,13.28
2019-04-23T05:30:46.395Z,13.25
2019-04-23T05:32:02.510Z,13.30
2019-04-23T05:32:43.268Z,13.30
2019-04-23T05:33:39.106Z,13.35
2019-04-23T05:34:40.171Z,13.31
2019-04-23T05:36:04.879Z,13.33
2019-04-23T05:36:43.442Z,13.39
2019-04-23T05:38:50.724Z,13.53
2019-04-23T05:40:50.228Z,13.56
2019-04-23T05:42:40.114Z,13.70
2019-04-23T05:44:06.911Z,13.56
2019-04-23T05:46:40.218Z,13.65
2019-04-23T05:47:39.909Z,13.67
2019-04-23T05:48:37.399Z,13.68
2019-04-23T05:50:00.658Z,13.65
2019-04-23T05:50:57.778Z,13.86
2019-04-23T05:51:48.910Z,13.75
2019-04-23T05:53:40.782Z,13.63
2019-04-23T05:54:45.009Z,13.71
2019-04-23T05:56:01.831Z,13.78
2019-04-23T05:56:38.503Z,13.75
2019-04-23T05:57:39.109Z,13.74
2019-04-23T05:58:50.270Z,13.78
2019-04-23T05:59:34.344Z,13.74
2019-04-23T06:00:54.534Z,13.74
2019-04-23T06:01:58.849Z,13.72
2019-04-23T06:02:41.930Z,13.83
2019-04-23T06:03:46.526Z,13.95
2019-04-23T06:04:38.792Z,13.90
2019-04-23T06:05:41.496Z,13.96
2019-04-23T06:06:45.160Z,13.95
2019-04-23T06:08:17.751Z,13.92
2019-04-23T06:08:43.609Z,13.89
2019-04-23T06:09:52.093Z,14.10
2019-04-23T06:10:45.826Z,14.15
2019-04-23T06:12:36.877Z,14.20
2019-04-23T06:14:39.091Z,14.32
2019-04-23T06:15:41.678Z,14.33
2019-04-23T06:17:59.429Z,14.54
2019-04-23T06:18:40.814Z,14.53
2019-04-23T06:20:02.911Z,14.63
2019-04-23T06:20:43.659Z,14.62
2019-04-23T06:21:47.911Z,14.68
2019-04-23T06:23:43.547Z,14.62
2019-04-23T06:24:37.738Z,14.69
2019-04-23T06:26:15.012Z,14.69
2019-04-23T06:26:51.719Z,14.73
2019-04-23T06:28:35.085Z,14.96
2019-04-23T06:29:50.115Z,15.00
2019-04-23T06:31:54.064Z,15.07
2019-04-23T06:32:38.030Z,15.07
2019-04-23T06:34:33.663Z,14.99
2019-04-23T06:35:35.957Z,15.04
2019-04-23T06:36:37.170Z,15.15
2019-04-23T06:38:45.001Z,15.22
2019-04-23T06:39:45.958Z,15.24
2019-04-23T06:40:34.281Z,15.21
2019-04-23T06:41:37.579Z,15.36
2019-04-23T06:42:38.823Z,15.43
2019-04-23T06:44:54.874Z,15.52
2019-04-23T06:45:33.873Z,15.64
2019-04-23T06:46:48.789Z,15.58
2019-04-23T06:47:54.054Z,15.62
2019-04-23T06:48:35.247Z,15.67
2019-04-23T06:49:55.670Z,15.70
2019-04-23T06:50:43.272Z,15.73
2019-04-23T06:51:46.403Z,15.79
2019-04-23T06:52:26.117Z,15.67
2019-04-23T06:53:33.814Z,15.67
2019-04-23T06:54:42.375Z,15.70
2019-04-23T06:55:59.941Z,15.83
2019-04-23T06:56:43.620Z,15.91
2019-04-23T06:57:41.019Z,15.98
2019-04-23T06:58:32.634Z,15.97
2019-04-23T06:59:35.264Z,16.00
2019-04-23T07:00:34.160Z,16.10
2019-04-23T07:02:13.548Z,16.16
2019-04-23T07:02:39.159Z,16.16
2019-04-23T07:03:38.792Z,16.15
2019-04-23T07:04:43.357Z,16.16
2019-04-23T07:05:50.969Z,16.10
2019-04-23T07:06:36.761Z,16.21
2019-04-23T07:07:57.405Z,16.33
2019-04-23T07:08:44.694Z,16.35
2019-04-23T07:09:26.322Z,16.42
2019-04-23T07:10:38.946Z,16.42
2019-04-23T07:11:33.801Z,16.46
2019-04-23T07:12:38.567Z,16.42
2019-04-23T07:14:38.689Z,16.57
2019-04-23T07:16:32.502Z,16.61
2019-04-23T07:17:30.900Z,16.65
2019-04-23T07:18:36.148Z,16.75
2019-04-23T07:19:58.424Z,16.66
2019-04-23T07:20:37.805Z,16.78
2019-04-23T07:21:53.530Z,16.78
2019-04-23T07:22:49.889Z,16.72
2019-04-23T07:23:41.677Z,16.83
2019-04-23T07:24:34.819Z,17.01
2019-04-23T07:25:56.784Z,16.90
2019-04-23T07:26:39.007Z,16.99
2019-04-23T07:27:30.098Z,16.97
2019-04-23T07:28:36.308Z,17.06
2019-04-23T07:29:31.358Z,17.05
2019-04-23T07:30:32.871Z,16.99
2019-04-23T07:31:59.071Z,17.02
2019-04-23T07:32:35.759Z,17.15
2019-04-23T07:33:35.086Z,17.26
2019-04-23T07:34:32.092Z,17.26
2019-04-23T07:35:30.543Z,17.23
2019-04-23T07:36:34.188Z,17.36
2019-04-23T07:38:08.825Z,17.42
2019-04-23T07:38:48.224Z,17.39
2019-04-23T07:39:35.619Z,17.41
2019-04-23T07:40:50.138Z,17.49
2019-04-23T07:41:43.264Z,17.27
2019-04-23T07:42:39.123Z,17.44
2019-04-23T07:44:06.357Z,17.48
2019-04-23T07:45:34.928Z,17.56
2019-04-23T07:46:40.765Z,17.49
2019-04-23T07:47:54.101Z,17.60
2019-04-23T07:48:29.227Z,17.63
2019-04-23T07:50:10.965Z,17.67
2019-04-23T07:50:48.020Z,17.64
2019-04-23T07:51:36.821Z,17.65
2019-04-23T07:52:41.478Z,17.68
2019-04-23T07:53:53.586Z,17.63
2019-04-23T07:54:38.762Z,17.64
2019-04-23T07:56:02.278Z,17.71
2019-04-23T07:56:36.264Z,17.60
2019-04-23T07:57:35.013Z,17.64
2019-04-23T07:58:28.569Z,17.71
2019-04-23T08:00:41.772Z,17.80
2019-04-23T08:02:01.229Z,17.78
2019-04-23T08:02:33.591Z,17.83
2019-04-23T08:03:48.214Z,17.89
2019-04-23T08:04:48.427Z,17.82
2019-04-23T08:05:35.695Z,17.83
2019-04-23T08:06:29.367Z,17.83
2019-04-23T08:07:55.875Z,17.89
2019-04-23T08:08:33.291Z,17.98
2019-04-23T08:09:34.144Z,17.98
2019-04-23T08:10:37.626Z,18.13
2019-04-23T08:11:42.379Z,18.08
2019-04-23T08:13:56.998Z,18.20
2019-04-23T08:14:32.752Z,18.29
2019-04-23T08:15:35.333Z,18.33
2019-04-23T08:16:33.625Z,18.38
2019-04-23T08:17:31.280Z,18.35
2019-04-23T08:18:36.828Z,18.38
2019-04-23T08:20:35.845Z,18.38
2019-04-23T08:21:31.795Z,18.34
2019-04-23T08:22:37.269Z,18.37
2019-04-23T08:23:37.943Z,18.44
2019-04-23T08:24:38.169Z,18.37
2019-04-23T08:26:02.184Z,18.45
2019-04-23T08:28:41.955Z,18.52
2019-04-23T08:29:30.252Z,18.52
2019-04-23T08:30:33.413Z,18.50
2019-04-23T08:32:21.285Z,18.52
2019-04-23T08:33:31.622Z,18.58
2019-04-23T08:34:39.062Z,18.65
2019-04-23T08:35:33.942Z,18.62
2019-04-23T08:36:37.553Z,18.75
2019-04-23T08:38:09.509Z,18.81
2019-04-23T08:40:36.883Z,18.77
2019-04-23T08:43:59.440Z,18.96
2019-04-23T08:44:40.211Z,18.84
2019-04-23T08:45:29.901Z,18.75
2019-04-23T08:46:43.335Z,18.81
2019-04-23T08:47:31.865Z,18.81
2019-04-23T08:48:49.725Z,18.88
2019-04-23T08:49:50.823Z,18.93
2019-04-23T08:50:32.690Z,18.88
2019-04-23T08:51:51.452Z,18.93
2019-04-23T08:52:32.946Z,18.95
2019-04-23T08:54:48.413Z,18.77
2019-04-23T08:56:41.145Z,18.88
2019-04-23T08:57:32.161Z,18.96
2019-04-23T08:58:32.223Z,18.93
2019-04-23T08:59:39.921Z,18.95
2019-04-23T09:00:43.700Z,19.02
2019-04-23T09:02:07.717Z,19.08
2019-04-23T09:03:33.307Z,19.18
2019-04-23T09:04:42.079Z,19.30
2019-04-23T09:06:27.769Z,19.29
2019-04-23T09:07:59.776Z,19.31
2019-04-23T09:08:44.393Z,19.26
2019-04-23T09:09:39.766Z,19.26
2019-04-23T09:10:34.206Z,19.33
2019-04-23T09:11:41.750Z,19.40
2019-04-23T09:12:37.240Z,19.48
2019-04-23T09:13:57.551Z,19.48
2019-04-23T09:14:31.892Z,19.56
2019-04-23T09:15:38.872Z,19.48
2019-04-23T09:17:34.839Z,19.82
2019-04-23T09:20:27.712Z,20.09
2019-04-23T09:21:37.401Z,20.07
2019-04-23T09:22:36.089Z,19.99
2019-04-23T09:23:43.784Z,20.18
2019-04-23T09:24:38.275Z,20.19
2019-04-23T09:25:56.379Z,20.25
2019-04-23T09:26:26.092Z,20.13
2019-04-23T09:27:33.217Z,20.29
2019-04-23T09:28:41.926Z,20.34
2019-04-23T09:29:42.542Z,20.39
2019-04-23T09:30:32.379Z,20.47
2019-04-23T09:32:28.370Z,20.63
2019-04-23T09:33:42.795Z,20.47
2019-04-23T09:34:34.195Z,20.43
2019-04-23T09:35:30.826Z,20.50
2019-04-23T09:36:37.731Z,20.56
2019-04-23T09:37:52.659Z,20.63
2019-04-23T09:38:31.470Z,20.63
2019-04-23T09:39:34.875Z,20.52
2019-04-23T09:41:27.693Z,20.65
2019-04-23T09:43:53.893Z,20.80
2019-04-23T09:45:33.725Z,20.87
2019-04-23T09:46:28.915Z,20.99
2019-04-23T09:47:37.240Z,21.05
2019-04-23T09:48:37.345Z,21.03
2019-04-23T09:49:56.908Z,21.11
2019-04-23T09:52:41.031Z,21.21
2019-04-23T09:53:35.853Z,21.20
2019-04-23T09:54:32.464Z,21.20
2019-04-23T09:55:48.659Z,21.30
2019-04-23T09:56:37.669Z,21.42
2019-04-23T09:57:36.114Z,21.45
2019-04-23T09:58:46.320Z,21.52
2019-04-23T10:01:44.961Z,21.73
2019-04-23T10:02:21.582Z,21.98
2019-04-23T10:03:20.049Z,22.02
2019-04-23T10:04:17.046Z,22.17
2019-04-23T10:05:13.965Z,22.13
2019-04-23T10:06:11.898Z,22.22
2019-04-23T10:07:40.018Z,22.17
2019-04-23T10:08:15.244Z,22.17
2019-04-23T10:09:06.641Z,22.20
2019-04-23T10:10:05.343Z,22.20
2019-04-23T10:11:05.095Z,22.38
2019-04-23T10:12:05.159Z,22.50
2019-04-23T10:13:26.050Z,22.53
2019-04-23T10:14:03.703Z,22.68
2019-04-23T10:15:10.963Z,22.63
2019-04-23T10:16:04.437Z,22.80
2019-04-23T10:17:04.297Z,22.88
2019-04-23T10:18:04.579Z,22.81
2019-04-23T10:19:24.744Z,22.88
2019-04-23T10:20:04.640Z,22.93
2019-04-23T10:21:03.534Z,22.99
2019-04-23T10:22:04.928Z,23.21
2019-04-23T10:23:04.191Z,23.12
2019-04-23T10:24:03.526Z,23.31
2019-04-23T10:25:25.671Z,23.17
2019-04-23T10:26:03.862Z,23.27
2019-04-23T10:27:04.164Z,23.21
2019-04-23T10:28:07.274Z,23.37
2019-04-23T10:29:03.331Z,22.57
2019-04-23T10:30:03.983Z,22.50
2019-04-23T10:31:25.153Z,22.50
2019-04-23T10:32:03.859Z,22.65
2019-04-23T10:33:03.408Z,22.80
2019-04-23T10:34:04.433Z,23.02
2019-04-23T10:35:14.686Z,23.06
2019-04-23T10:36:08.825Z,23.17
2019-04-23T10:37:34.278Z,23.27
2019-04-23T10:38:08.211Z,23.47
2019-04-23T10:39:10.696Z,23.47
2019-04-23T10:40:07.362Z,23.66
2019-04-23T10:41:04.381Z,23.63
2019-04-23T10:42:03.482Z,23.71
2019-04-23T10:43:25.051Z,23.76
2019-04-23T10:44:02.955Z,23.92
2019-04-23T10:45:14.848Z,24.14
2019-04-23T10:46:20.437Z,24.32
2019-04-23T10:47:30.243Z,24.54
2019-04-23T10:48:36.801Z,24.61
2019-04-23T10:50:35.485Z,24.80
2019-04-23T10:51:33.906Z,24.61
2019-04-23T10:53:39.649Z,24.39
2019-04-23T10:54:35.868Z,24.58
2019-04-23T10:55:58.378Z,24.74
2019-04-23T10:56:34.947Z,24.88
2019-04-23T10:57:36.029Z,24.93
2019-04-23T10:58:31.465Z,24.70
2019-04-23T10:59:21.599Z,24.92
2019-04-23T11:00:30.741Z,25.16
2019-04-23T11:01:52.945Z,25.21
2019-04-23T11:04:53.718Z,25.48
2019-04-23T11:05:42.966Z,25.51
2019-04-23T11:06:47.171Z,25.60
2019-04-23T11:07:42.089Z,25.68
2019-04-23T11:08:31.243Z,25.81
2019-04-23T11:09:42.385Z,25.22
2019-04-23T11:10:25.950Z,25.29
2019-04-23T11:11:40.731Z,25.21
2019-04-23T11:12:37.493Z,25.38
2019-04-23T11:13:56.640Z,25.68
2019-04-23T11:14:34.315Z,25.87
2019-04-23T11:16:55.654Z,25.95
2019-04-23T11:17:38.443Z,25.54
2019-04-23T11:18:40.158Z,25.51
2019-04-23T11:19:56.953Z,25.40
2019-04-23T11:22:44.197Z,25.83
2019-04-23T11:23:30.928Z,25.83
2019-04-23T11:27:46.929Z,25.75
2019-04-23T11:29:34.215Z,25.91
2019-04-23T11:33:30.450Z,26.07
2019-04-23T11:34:56.721Z,25.91
2019-04-23T11:36:49.827Z,25.83
2019-04-23T11:38:01.635Z,26.03
2019-04-23T11:38:12.338Z,25.91
2019-04-23T11:39:45.920Z,26.03
2019-04-23T11:40:28.342Z,26.16
2019-04-23T11:42:54.533Z,26.07
2019-04-23T11:43:48.958Z,26.13
2019-04-23T11:44:36.486Z,26.21
2019-04-23T11:48:04.814Z,26.10
2019-04-23T11:48:47.495Z,26.06
2019-04-23T11:50:01.945Z,26.19
2019-04-23T11:52:36.330Z,26.29
2019-04-23T11:53:34.166Z,26.33
2019-04-23T11:54:32.287Z,26.26
2019-04-23T11:57:42.519Z,26.45
2019-04-23T11:59:51.889Z,26.33
2019-04-23T12:00:44.725Z,26.52
2019-04-23T12:01:53.312Z,26.48
2019-04-23T12:02:33.198Z,26.43
2019-04-23T12:03:28.700Z,26.23
2019-04-23T12:05:37.875Z,26.28
2019-04-23T12:06:30.168Z,26.06
2019-04-23T12:07:52.029Z,26.06
2019-04-23T12:08:38.468Z,26.33
2019-04-23T12:09:40.089Z,26.38
2019-04-23T12:10:42.949Z,26.33
2019-04-23T12:11:52.812Z,26.23
2019-04-23T12:12:33.064Z,26.40
2019-04-23T12:13:52.562Z,26.47
2019-04-23T12:15:32.845Z,26.40
2019-04-23T12:16:43.575Z,26.55
2019-04-23T12:17:38.797Z,26.47
2019-04-23T12:18:34.952Z,26.43
2019-04-23T12:20:33.734Z,26.26
2019-04-23T12:21:43.869Z,26.37
2019-04-23T12:22:30.400Z,26.45
2019-04-23T12:25:02.538Z,26.25
2019-04-23T12:26:11.558Z,26.25
2019-04-23T12:26:40.795Z,26.41
2019-04-23T12:27:30.519Z,26.47
2019-04-23T12:28:30.136Z,26.55
2019-04-23T12:29:33.434Z,26.62
2019-04-23T12:30:34.214Z,26.68
2019-04-23T12:31:38.403Z,26.55
2019-04-23T12:33:40.876Z,26.40
2019-04-23T12:34:35.815Z,26.37
2019-04-23T12:35:25.596Z,26.51
2019-04-23T12:36:43.746Z,26.41
2019-04-23T12:37:52.415Z,26.55
2019-04-23T12:38:25.705Z,26.55
2019-04-23T12:39:34.354Z,26.75
2019-04-23T12:40:25.096Z,26.78
2019-04-23T12:41:31.919Z,26.84
2019-04-23T12:42:48.515Z,26.95
2019-04-23T12:43:47.410Z,26.95
2019-04-23T12:44:31.536Z,26.88
2019-04-23T12:46:29.783Z,26.85
2019-04-23T12:47:43.645Z,27.00
2019-04-23T12:48:44.692Z,26.97
2019-04-23T12:50:05.037Z,27.05
2019-04-23T12:51:34.613Z,27.03
2019-04-23T12:52:33.908Z,26.55
2019-04-23T12:53:30.512Z,26.38
2019-04-23T12:54:42.641Z,26.45
2019-04-23T12:55:43.879Z,26.55
2019-04-23T12:56:43.960Z,26.62
2019-04-23T12:58:32.325Z,26.89
2019-04-23T12:59:30.870Z,26.89
2019-04-23T13:00:37.272Z,27.03
2019-04-23T13:01:57.606Z,27.03
2019-04-23T13:03:30.130Z,26.83
2019-04-23T13:04:38.095Z,26.83
2019-04-23T13:05:28.910Z,26.88
2019-04-23T13:06:27.879Z,26.62
2019-04-23T13:08:33.384Z,26.83
2019-04-23T13:09:44.311Z,26.84
2019-04-23T13:10:30.276Z,26.96
2019-04-23T13:11:32.561Z,27.07
2019-04-23T13:12:36.273Z,27.05
2019-04-23T13:13:53.232Z,26.97
2019-04-23T13:14:36.271Z,26.96
2019-04-23T13:17:42.306Z,26.56
2019-04-23T13:19:53.670Z,26.44
2019-04-23T13:20:28.062Z,26.45
2019-04-23T13:21:51.744Z,26.41
2019-04-23T13:22:30.483Z,26.53
2019-04-23T13:23:30.744Z,26.52
2019-04-23T13:24:26.003Z,26.62
2019-04-23T13:25:54.121Z,26.58
2019-04-23T13:26:17.793Z,26.55
2019-04-23T13:27:38.597Z,26.51
2019-04-23T13:28:37.678Z,26.44
2019-04-23T13:29:38.196Z,26.44
2019-04-23T13:31:39.992Z,26.41
2019-04-23T13:32:31.072Z,26.51
2019-04-23T13:33:35.494Z,26.74
2019-04-23T13:34:34.781Z,26.83
2019-04-23T13:36:33.025Z,26.89
2019-04-23T13:37:55.067Z,26.75
2019-04-23T13:38:33.474Z,26.80
2019-04-23T13:40:36.162Z,26.45
2019-04-23T13:41:28.841Z,26.07
2019-04-23T13:42:41.004Z,25.40
2019-04-23T13:43:42.637Z,25.69
2019-04-23T13:44:27.664Z,25.98
2019-04-23T13:45:53.612Z,26.25
2019-04-23T13:46:23.083Z,26.44
2019-04-23T13:48:20.124Z,26.48
2019-04-23T13:49:51.137Z,26.63
2019-04-23T13:50:37.326Z,26.74
2019-04-23T13:51:27.364Z,26.58
2019-04-23T13:52:59.405Z,26.47
2019-04-23T13:54:46.486Z,26.53
2019-04-23T13:55:49.105Z,26.65
2019-04-23T14:00:35.115Z,27.14
2019-04-23T14:01:46.904Z,27.11
2019-04-23T14:04:38.627Z,27.18
2019-04-23T14:05:26.839Z,27.18
2019-04-23T14:08:41.663Z,27.21
2019-04-23T14:09:37.954Z,27.05
2019-04-23T14:10:35.952Z,26.99
2019-04-23T14:12:35.194Z,27.29
2019-04-23T14:14:34.462Z,27.30
2019-04-23T14:15:34.182Z,27.30
2019-04-23T14:17:38.530Z,27.25
2019-04-23T14:19:47.807Z,27.12
2019-04-23T14:20:28.049Z,27.14
2019-04-23T14:23:41.168Z,26.74
2019-04-23T14:24:45.887Z,27.03
2019-04-23T14:26:05.250Z,27.21
2019-04-23T14:27:26.829Z,27.45
2019-04-23T14:28:28.152Z,27.49
2019-04-23T14:29:31.918Z,27.64
2019-04-23T14:30:30.004Z,27.75
2019-04-23T14:31:43.285Z,27.71
2019-04-23T14:33:40.120Z,27.75
2019-04-23T14:34:25.125Z,27.89
2019-04-23T14:35:33.177Z,27.92
2019-04-23T14:36:28.251Z,27.77
2019-04-23T14:38:02.560Z,27.87
2019-04-23T14:39:28.847Z,27.42
2019-04-23T14:40:45.822Z,27.42
2019-04-23T14:41:27.271Z,27.22
2019-04-23T14:42:33.812Z,27.36
2019-04-23T14:44:20.114Z,27.52
2019-04-23T14:45:38.795Z,27.49
2019-04-23T14:47:27.832Z,27.70
2019-04-23T14:48:23.379Z,27.58
2019-04-23T14:49:59.312Z,27.58
2019-04-23T14:50:32.203Z,27.44
2019-04-23T14:51:32.268Z,27.33
2019-04-23T14:52:32.542Z,27.33
2019-04-23T14:53:24.718Z,27.39
2019-04-23T14:54:34.414Z,27.27
2019-04-23T14:56:20.160Z,27.36
2019-04-23T14:59:16.328Z,27.32
2019-04-23T15:02:28.800Z,27.48
2019-04-23T15:03:34.157Z,27.45
2019-04-23T15:04:28.838Z,27.37
2019-04-23T15:05:23.705Z,27.48
2019-04-23T15:06:27.792Z,27.59
2019-04-23T15:07:52.155Z,27.47
2019-04-23T15:08:30.242Z,27.42
2019-04-23T15:09:27.532Z,27.47
2019-04-23T15:11:44.300Z,27.27
2019-04-23T15:14:23.354Z,27.37
2019-04-23T15:15:24.030Z,27.35
2019-04-23T15:18:39.391Z,27.17
2019-04-23T15:19:48.247Z,27.05
2019-04-23T15:20:24.961Z,27.15
2019-04-23T15:23:40.715Z,27.11
2019-04-23T15:24:27.945Z,27.15
2019-04-23T15:26:19.852Z,27.00
2019-04-23T15:27:29.597Z,26.95
2019-04-23T15:28:07.365Z,26.84
2019-04-23T15:29:07.010Z,26.80
2019-04-23T15:30:15.754Z,26.78
2019-04-23T15:32:23.925Z,26.77
2019-04-23T15:33:49.161Z,26.88
2019-04-23T15:38:12.424Z,26.28
2019-04-23T15:38:40.057Z,26.36
2019-04-23T15:39:31.144Z,26.22
2019-04-23T15:40:22.873Z,26.23
2019-04-23T15:41:33.463Z,26.25
2019-04-23T15:42:25.487Z,26.25
2019-04-23T15:43:55.258Z,26.29
2019-04-23T15:44:16.121Z,26.21
2019-04-23T15:45:21.370Z,26.13
2019-04-23T15:46:35.503Z,26.07
2019-04-23T15:47:28.430Z,26.03
2019-04-23T15:48:22.536Z,26.05
2019-04-23T15:49:45.501Z,25.91
2019-04-23T15:50:52.215Z,25.93
2019-04-23T15:52:30.219Z,25.91
2019-04-23T15:53:17.496Z,25.95
2019-04-23T15:54:28.120Z,25.96
2019-04-23T15:57:32.066Z,25.69
2019-04-23T15:58:37.247Z,25.68
2019-04-23T15:59:33.334Z,25.63
2019-04-23T16:00:21.037Z,25.51
2019-04-23T16:01:37.712Z,25.48
2019-04-23T16:01:55.602Z,25.60
2019-04-23T16:02:55.571Z,25.46
2019-04-23T16:03:57.205Z,25.43
2019-04-23T16:04:56.030Z,25.35
2019-04-23T16:05:57.257Z,25.06
2019-04-23T16:07:31.756Z,25.13
2019-04-23T16:08:26.381Z,25.04
2019-04-23T16:09:36.097Z,25.10
2019-04-23T16:10:25.086Z,25.13
2019-04-23T16:11:33.509Z,25.16
2019-04-23T16:12:17.809Z,25.16
2019-04-23T16:14:04.674Z,25.22
2019-04-23T16:14:41.082Z,25.18
2019-04-23T16:15:25.807Z,25.10
2019-04-23T16:16:29.846Z,25.04
2019-04-23T16:18:28.000Z,24.93
2019-04-23T16:19:43.950Z,24.85